Time;durP1;ratioP1;P1;durP2;ratioP2;P2;SDS_P1;SDS_P2;PMS_P1;PMS_P2;Temp;Humidity;BMP_temperature;BMP_pressure;BME280_temperature;BME280_humidity;BME280_pressure;Samples;Min_cycle;Max_cycle;Signal;HPM_P1;HPM_P2
2020/12/30 00:02:28;;;;;;;22.30;7.60;;;;;;;;;;15366142;28;20247;-78
2020/12/30 00:09:57;;;;;;;10.60;7.27;;;9.80;65.80;;;;;;15365746;28;20226;-77
2020/12/30 00:17:25;;;;;;;9.97;7.23;;;11.50;69.80;;;;;;15365441;28;20194;-76
2020/12/30 00:24:52;;;;;;;9.43;6.23;;;11.40;70.10;;;;;;15364438;28;20230;-77
2020/12/30 00:32:20;;;;;;;9.37;6.93;;;11.50;67.20;;;;;;15351937;28;20198;-76
2020/12/30 00:39:47;;;;;;;9.73;6.70;;;;;;;;;;15347602;28;20229;-77
2020/12/30 00:47:15;;;;;;;12.70;7.37;;;;;;;;;;15345826;28;20237;-78
2020/12/30 00:54:44;;;;;;;10.40;7.60;;;;;;;;;;15345314;28;20218;-77
2020/12/30 01:02:24;;;;;;;9.47;7.60;;;;;;;;;;15363095;28;20732;-77
2020/12/30 01:09:52;;;;;;;8.60;6.57;;;11.10;71.10;;;;;;15345325;28;20864;-77
2020/12/30 01:17:19;;;;;;;12.40;7.30;;;;;;;;;;15361399;28;20659;-77
2020/12/30 01:24:46;;;;;;;10.70;7.70;;;9.80;70.40;;;;;;15361186;28;20225;-77
2020/12/30 01:32:15;;;;;;;13.43;7.47;;;12.30;71.80;;;;;;15363515;28;20233;-77
2020/12/30 01:39:42;;;;;;;11.00;7.33;;;11.30;71.50;;;;;;15363861;28;20233;-77
2020/12/30 01:47:11;;;;;;;12.77;7.57;;;10.60;67.20;;;;;;15325960;28;20238;-77
2020/12/30 01:54:39;;;;;;;11.20;7.37;;;10.80;67.70;;;;;;15344123;28;20201;-77
2020/12/30 02:02:07;;;;;;;8.87;7.10;;;10.20;70.80;;;;;;15343317;28;20213;-75
2020/12/30 02:09:35;;;;;;;11.80;7.73;;;11.30;71.50;;;;;;15355699;28;20308;-77
2020/12/30 02:17:04;;;;;;;11.57;7.87;;;10.60;68.60;;;;;;15354215;28;20202;-72
2020/12/30 02:24:33;;;;;;;12.90;8.53;;;10.90;66.50;;;;;;15372423;28;20316;-76
2020/12/30 02:32:03;;;;;;;13.03;8.73;;;;;;;;;;15354435;28;20537;-75
2020/12/30 02:39:30;;;;;;;11.53;8.23;;;10.20;72.00;;;;;;15370370;28;20295;-75
2020/12/30 02:46:57;;;;;;;11.90;8.13;;;9.70;68.60;;;;;;15352652;28;20284;-75
2020/12/30 02:54:24;;;;;;;13.90;8.47;;;10.10;73.40;;;;;;15372706;28;20233;-75
2020/12/30 03:01:51;;;;;;;14.90;9.03;;;8.40;72.80;;;;;;15352169;28;20194;-77
2020/12/30 03:09:20;;;;;;;15.00;8.30;;;9.40;73.90;;;;;;15367245;28;20276;-75
2020/12/30 03:16:47;;;;;;;14.07;8.30;;;;;;;;;;15368371;28;20198;-76
2020/12/30 03:24:15;;;;;;;12.30;7.23;;;10.90;74.90;;;;;;15304495;28;20264;-76
2020/12/30 03:31:44;;;;;;;11.27;6.90;;;8.90;70.10;;;;;;15289395;28;20203;-76
2020/12/30 03:39:12;;;;;;;10.53;6.80;;;11.60;75.50;;;;;;15307365;28;20626;-76
2020/12/30 03:46:38;;;;;;;11.97;6.43;;;;;;;;;;15307532;28;20268;-75
2020/12/30 03:54:06;;;;;;;10.87;6.33;;;10.50;74.90;;;;;;15306753;28;20202;-75
2020/12/30 04:01:35;;;;;;;12.10;6.27;;;9.60;75.00;;;;;;15288069;28;20640;-76
2020/12/30 04:09:02;;;;;;;9.87;5.50;;;11.40;76.60;;;;;;15288641;28;20226;-75
2020/12/30 04:16:33;;;;;;;11.90;7.00;;;10.40;76.20;;;;;;15288530;28;20550;-74
2020/12/30 04:23:59;;;;;;;9.20;5.40;;;10.70;76.50;;;;;;15348929;28;20237;-76
2020/12/30 04:31:26;;;;;;;8.57;5.20;;;11.10;73.20;;;;;;15363921;28;20225;-74
2020/12/30 04:38:55;;;;;;;10.47;7.20;;;10.50;77.40;;;;;;15364907;28;20228;-75
2020/12/30 04:46:24;;;;;;;12.97;8.87;;;10.30;78.00;;;;;;15346486;28;20233;-75
2020/12/30 04:53:54;;;;;;;14.10;8.90;;;;;;;;;;15328637;28;20213;-75
2020/12/30 05:01:26;;;;;;;13.80;10.50;;;11.10;76.00;;;;;;15345218;28;20705;-76
2020/12/30 05:08:56;;;;;;;17.10;11.63;;;10.40;76.40;;;;;;15345676;28;20226;-75
2020/12/30 05:16:27;;;;;;;15.73;11.70;;;10.70;77.40;;;;;;15363193;28;20588;-75
2020/12/30 05:23:55;;;;;;;15.70;11.90;;;;;;;;;;15343490;28;20237;-75
2020/12/30 05:31:25;;;;;;;18.33;11.80;;;10.00;81.00;;;;;;15344761;28;20182;-75
2020/12/30 05:38:52;;;;;;;16.63;12.10;;;;;;;;;;15361375;28;20281;-76
2020/12/30 05:46:27;;;;;;;18.40;12.43;;;7.90;80.00;;;;;;15360037;28;20711;-75
2020/12/30 05:54:09;;;;;;;15.83;11.67;;;10.90;77.70;;;;;;15360112;28;20269;-75
2020/12/30 06:01:41;;;;;;;15.87;11.53;;;9.20;80.80;;;;;;15336743;28;20214;-77
2020/12/30 06:09:08;;;;;;;18.03;13.43;;;8.80;80.90;;;;;;15359439;28;20272;-75
2020/12/30 06:16:38;;;;;;;17.00;12.00;;;9.60;81.40;;;;;;15360079;28;20541;-76
2020/12/30 06:24:11;;;;;;;17.77;11.63;;;11.30;79.30;;;;;;15358921;28;20232;-74
2020/12/30 06:31:43;;;;;;;16.87;11.93;;;8.40;76.70;;;;;;15360134;28;20191;-75
2020/12/30 06:39:19;;;;;;;18.47;13.27;;;9.30;77.50;;;;;;15342113;28;20608;-75
2020/12/30 06:46:46;;;;;;;16.07;12.27;;;;;;;;;;15341069;28;20234;-76
2020/12/30 06:54:13;;;;;;;14.93;12.97;;;;;;;;;;15368559;28;20198;-75
2020/12/30 07:01:58;;;;;;;21.03;13.93;;;9.40;78.20;;;;;;15352884;28;20558;-75
2020/12/30 07:09:30;;;;;;;17.43;13.57;;;;;;;;;;15369415;28;20582;-76
2020/12/30 07:16:59;;;;;;;18.43;13.40;;;8.90;78.30;;;;;;15367570;28;20202;-75
2020/12/30 07:24:27;;;;;;;16.73;12.10;;;10.10;83.80;;;;;;15367900;28;20280;-75
2020/12/30 07:32:01;;;;;;;15.50;12.70;;;8.60;78.70;;;;;;15368259;28;20186;-75
2020/12/30 07:39:29;;;;;;;18.20;12.93;;;8.30;82.40;;;;;;15349038;28;20222;-76
2020/12/30 07:47:02;;;;;;;16.63;12.90;;;;;;;;;;15366925;28;20696;-75
2020/12/30 07:54:29;;;;;;;15.83;12.57;;;8.40;78.30;;;;;;15331943;28;20236;-75
2020/12/30 08:01:59;;;;;;;20.20;13.70;;;;;;;;;;15365616;28;20572;-75
2020/12/30 08:09:28;;;;;;;17.07;13.97;;;;;;;;;;15364713;28;20775;-75
2020/12/30 08:16:57;;;;;;;14.60;12.80;;;8.00;83.80;;;;;;15330487;28;20212;-75
2020/12/30 08:24:30;;;;;;;15.63;12.60;;;8.50;80.00;;;;;;15364594;28;20264;-76
2020/12/30 08:31:58;;;;;;;14.73;12.70;;;;;;;;;;15365549;28;20188;-75
2020/12/30 08:39:26;;;;;;;14.23;12.37;;;;;;;;;;15361323;28;20221;-75
2020/12/30 08:46:57;;;;;;;13.50;12.10;;;9.90;85.20;;;;;;15363405;28;20222;-76
2020/12/30 08:54:26;;;;;;;13.57;12.17;;;11.00;81.70;;;;;;15363478;28;20640;-77
2020/12/30 09:01:54;;;;;;;13.50;12.03;;;;;;;;;;15328038;28;20248;-77
2020/12/30 09:09:23;;;;;;;16.83;15.10;;;9.20;82.20;;;;;;15359776;28;20727;-74
2020/12/30 09:16:51;;;;;;;15.60;12.87;;;;;;;;;;15342968;28;20191;-74
2020/12/30 09:24:21;;;;;;;15.07;13.50;;;;;;;;;;15361346;28;20235;-74
2020/12/30 09:31:55;;;;;;;14.23;12.77;;;9.70;78.10;;;;;;15360791;28;20598;-75
2020/12/30 09:39:26;;;;;;;14.23;12.53;;;8.80;81.30;;;;;;15359982;28;20214;-76
2020/12/30 09:46:56;;;;;;;15.67;14.03;;;;;;;;;;15342480;28;20266;-76
2020/12/30 09:54:24;;;;;;;11.70;10.57;;;;;;;;;;15357684;28;20594;-77
2020/12/30 10:01:51;;;;;;;13.43;12.13;;;10.70;81.40;;;;;;15319212;28;20209;-74
2020/12/30 10:09:18;;;;;;;15.20;11.57;;;;;;;;;;15338888;28;20225;-74
2020/12/30 10:16:46;;;;;;;13.70;12.30;;;9.90;80.30;;;;;;15341954;28;20194;-75
2020/12/30 10:24:12;;;;;;;13.63;12.03;;;10.20;80.40;;;;;;15360008;28;20240;-74
2020/12/30 10:31:38;;;;;;;13.70;12.33;;;9.80;80.00;;;;;;15353003;28;20279;-73
2020/12/30 10:39:06;;;;;;;13.10;11.80;;;8.50;79.40;;;;;;15351858;28;20224;-78
2020/12/30 10:46:32;;;;;;;14.30;12.67;;;;;;;;;;15344445;28;20264;-76
2020/12/30 10:54:00;;;;;;;13.43;12.03;;;;;;;;;;15359292;28;20194;-77
2020/12/30 11:01:29;;;;;;;14.00;12.47;;;;;;;;;;15330650;28;20277;-78
2020/12/30 11:08:56;;;;;;;13.60;12.23;;;9.90;84.00;;;;;;15335302;28;20663;-76
2020/12/30 11:16:26;;;;;;;13.97;12.60;;;;;;;;;;15350015;28;20641;-77
2020/12/30 11:23:54;;;;;;;14.87;13.47;;;8.90;82.60;;;;;;15332833;28;20230;-76
2020/12/30 11:31:22;;;;;;;15.77;14.30;;;11.70;84.30;;;;;;15350034;28;20218;-79
2020/12/30 11:38:49;;;;;;;16.80;15.00;;;10.80;83.50;;;;;;15349616;28;20214;-76
2020/12/30 11:46:20;;;;;;;18.47;16.70;;;;;;;;;;15364444;28;20209;-77
2020/12/30 11:53:47;;;;;;;20.67;18.73;;;;;;;;;;15347840;28;20217;-77
2020/12/30 12:01:15;;;;;;;18.17;16.13;;;;;;;;;;15364760;28;20302;-78
2020/12/30 12:08:43;;;;;;;17.87;16.03;;;11.30;80.90;;;;;;15364690;28;20210;-75
2020/12/30 12:16:13;;;;;;;16.23;14.70;;;11.40;84.50;;;;;;15330773;28;20687;-76
2020/12/30 12:23:42;;;;;;;16.63;15.13;;;;;;;;;;15346869;28;20222;-77
2020/12/30 12:31:15;;;;;;;16.20;14.60;;;10.80;83.90;;;;;;15364470;28;20556;-79
2020/12/30 12:38:43;;;;;;;16.97;15.27;;;10.00;83.40;;;;;;15345745;28;20189;-78
2020/12/30 12:46:14;;;;;;;16.67;14.93;;;;;;;;;;15344916;28;20217;-78
2020/12/30 12:53:42;;;;;;;18.70;16.90;;;;;;;;;;15363191;28;20178;-79
2020/12/30 13:01:09;;;;;;;20.00;18.10;;;;;;;;;;15361807;28;20206;-80
2020/12/30 13:08:37;;;;;;;18.77;16.97;;;;;;;;;;15341141;28;20279;-78
2020/12/30 13:16:07;;;;;;;20.27;18.27;;;10.80;81.50;;;;;;15339257;28;20236;-78
2020/12/30 13:23:35;;;;;;;19.43;17.53;;;;;;;;;;15341143;28;20238;-78
2020/12/30 13:31:07;;;;;;;17.70;16.00;;;10.60;78.60;;;;;;15340638;28;20214;-78
2020/12/30 13:38:33;;;;;;;17.27;15.47;;;10.80;81.20;;;;;;15339855;28;20201;-78
2020/12/30 13:46:00;;;;;;;18.87;16.93;;;11.00;81.30;;;;;;15341799;28;20719;-79
2020/12/30 13:53:30;;;;;;;20.10;18.00;;;11.20;81.40;;;;;;15360210;28;20217;-79
2020/12/30 14:00:59;;;;;;;19.90;17.90;;;11.80;79.40;;;;;;15362876;28;20258;-79
2020/12/30 14:08:30;;;;;;;17.90;16.10;;;9.70;80.40;;;;;;15355364;28;20224;-83
2020/12/30 14:15:57;;;;;;;18.17;16.27;;;;;;;;;;15339361;28;20221;-83
2020/12/30 14:23:23;;;;;;;20.80;18.60;;;10.50;81.90;;;;;;15372333;28;20226;-81
2020/12/30 14:30:53;;;;;;;20.93;17.87;;;;;;;;;;15337297;28;20288;-82
2020/12/30 14:38:21;;;;;;;20.57;18.43;;;;;;;;;;15337372;28;20661;-81
2020/12/30 14:45:52;;;;;;;53.40;40.17;;;;;;;;;;15337444;28;20234;-78
2020/12/30 14:53:20;;;;;;;21.00;18.43;;;10.50;79.20;;;;;;15370641;28;20193;-77
2020/12/30 15:00:48;;;;;;;20.70;18.53;;;;;;;;;;15351152;28;20617;-76
2020/12/30 15:08:15;;;;;;;21.13;19.07;;;;;;;;;;15351948;28;20321;-77
2020/12/30 15:15:44;;;;;;;20.70;18.60;;;10.10;84.10;;;;;;15350792;28;20218;-77
2020/12/30 15:23:12;;;;;;;19.97;18.07;;;;;;;;;;15367029;28;20237;-77
2020/12/30 15:30:38;;;;;;;20.00;17.93;;;;;;;;;;15350416;28;20230;-77
2020/12/30 15:38:08;;;;;;;20.60;18.50;;;;;;;;;;15350257;28;20557;-77
2020/12/30 15:45:36;;;;;;;21.37;19.17;;;11.10;85.30;;;;;;15348612;28;20284;-77
2020/12/30 15:53:03;;;;;;;20.70;18.20;;;11.20;85.00;;;;;;15365755;28;20252;-78
2020/12/30 16:00:30;;;;;;;20.87;18.67;;;10.40;81.00;;;;;;15366367;28;20198;-77
2020/12/30 16:07:57;;;;;;;21.30;19.10;;;;;;;;;;15348275;28;20231;-78
2020/12/30 16:15:24;;;;;;;21.90;19.73;;;11.20;81.30;;;;;;15362623;28;20229;-78
2020/12/30 16:22:51;;;;;;;21.97;19.70;;;12.20;84.70;;;;;;15344826;28;20218;-73
2020/12/30 16:30:18;;;;;;;21.50;19.43;;;11.70;83.00;;;;;;15346882;28;20610;-73
2020/12/30 16:37:44;;;;;;;20.67;18.53;;;10.40;81.80;;;;;;15363934;28;20264;-72
2020/12/30 16:45:11;;;;;;;20.43;17.97;;;11.20;79.80;;;;;;15344551;28;20234;-72
2020/12/30 16:52:37;;;;;;;23.23;20.87;;;10.70;82.00;;;;;;15362739;28;20194;-74
2020/12/30 17:00:04;;;;;;;22.97;20.33;;;11.50;82.90;;;;;;15363294;28;20613;-73
2020/12/30 17:07:36;;;;;;;23.50;21.13;;;11.90;82.90;;;;;;15363073;28;20335;-73
2020/12/30 17:15:02;;;;;;;23.30;20.97;;;10.10;80.00;;;;;;15361601;28;20214;-72
2020/12/30 17:22:34;;;;;;;24.70;22.17;;;8.60;79.00;;;;;;15361540;28;20229;-74
2020/12/30 17:30:02;;;;;;;23.23;20.73;;;;;;;;;;15361972;28;20634;-79
2020/12/30 17:37:29;;;;;;;25.37;22.80;;;12.70;84.30;;;;;;15359116;28;20218;-77
2020/12/30 17:44:55;;;;;;;23.37;21.13;;;11.70;83.90;;;;;;15353160;28;20220;-82
2020/12/30 17:52:27;;;;;;;25.00;21.80;;;11.20;84.20;;;;;;15338265;28;20212;-77
2020/12/30 17:59:57;;;;;;;23.90;21.37;;;10.90;84.50;;;;;;15358135;28;20181;-79
2020/12/30 18:07:27;;;;;;;21.73;19.43;;;9.80;83.60;;;;;;15355299;28;20226;-76
2020/12/30 18:14:54;;;;;;;23.23;20.93;;;10.70;84.30;;;;;;15356716;28;20750;-74
2020/12/30 18:22:20;;;;;;;22.77;20.40;;;;;;;;;;15321555;28;20815;-76
2020/12/30 18:29:49;;;;;;;21.80;19.57;;;11.60;82.60;;;;;;15337956;28;20207;-74
2020/12/30 18:37:16;;;;;;;24.63;22.07;;;;;;;;;;15340625;28;20194;-75
2020/12/30 18:44:43;;;;;;;22.93;20.53;;;;;;;;;;15360840;28;20226;-76
2020/12/30 18:52:12;;;;;;;22.20;19.90;;;11.30;86.10;;;;;;15369964;28;20625;-75
2020/12/30 18:59:39;;;;;;;25.00;22.40;;;;;;;;;;15369437;28;20202;-76
2020/12/30 19:07:06;;;;;;;24.80;22.20;;;;;;;;;;15352280;28;20297;-75
2020/12/30 19:14:34;;;;;;;25.13;22.40;;;;;;;;;;15353152;28;20233;-75
2020/12/30 19:22:01;;;;;;;24.87;22.20;;;10.30;85.50;;;;;;15367401;28;20234;-75
2020/12/30 19:29:27;;;;;;;24.80;22.37;;;10.60;85.90;;;;;;15366772;28;20228;-75
2020/12/30 19:36:56;;;;;;;25.20;22.60;;;10.80;85.80;;;;;;15350511;28;20209;-75
2020/12/30 19:44:23;;;;;;;26.97;24.07;;;11.10;85.90;;;;;;15367194;28;20222;-75
2020/12/30 19:51:50;;;;;;;26.03;23.03;;;;;;;;;;15348968;28;20217;-75
2020/12/30 19:59:18;;;;;;;32.40;28.23;;;12.60;86.90;;;;;;15365186;28;20205;-76
2020/12/30 20:06:45;;;;;;;33.30;28.63;;;10.00;85.80;;;;;;15368103;28;20214;-76
2020/12/30 20:14:11;;;;;;;35.37;28.37;;;10.30;85.50;;;;;;15348498;28;20684;-75
2020/12/30 20:21:39;;;;;;;33.03;29.47;;;9.10;81.20;;;;;;15364866;28;20781;-76
2020/12/30 20:29:05;;;;;;;36.70;32.87;;;10.90;86.10;;;;;;15365515;28;20226;-74
2020/12/30 20:36:35;;;;;;;35.73;31.93;;;;;;;;;;15364417;28;20189;-76
2020/12/30 20:44:02;;;;;;;35.07;30.53;;;;;;;;;;15363464;28;20768;-75
2020/12/30 20:51:29;;;;;;;37.47;31.53;;;;;;;;;;15345811;28;20226;-75
2020/12/30 20:58:55;;;;;;;31.40;27.70;;;11.70;86.50;;;;;;15364088;28;20703;-74
2020/12/30 21:06:22;;;;;;;32.00;27.60;;;;;;;;;;15346552;28;20217;-75
2020/12/30 21:13:50;;;;;;;34.30;29.30;;;;;;;;;;15347015;28;20229;-74
2020/12/30 21:21:17;;;;;;;33.87;27.50;;;;;;;;;;15345470;28;20225;-75
2020/12/30 21:28:45;;;;;;;31.80;28.47;;;;;;;;;;15363654;28;20742;-76
2020/12/30 21:36:15;;;;;;;33.23;29.30;;;10.70;86.50;;;;;;15359663;28;20182;-76
2020/12/30 21:43:42;;;;;;;31.63;28.27;;;10.10;81.70;;;;;;15360885;28;20280;-75
2020/12/30 21:51:17;;;;;;;29.33;24.87;;;11.40;82.50;;;;;;15361494;28;20294;-75
2020/12/30 21:58:44;;;;;;;25.97;23.17;;;10.30;81.70;;;;;;15360019;28;20189;-76
2020/12/30 22:06:11;;;;;;;28.07;25.03;;;;;;;;;;15360642;28;20209;-76
2020/12/30 22:13:39;;;;;;;27.13;24.07;;;10.40;85.70;;;;;;15342807;28;20230;-76
2020/12/30 22:21:09;;;;;;;26.17;23.40;;;;;;;;;;15346977;28;20697;-74
2020/12/30 22:28:37;;;;;;;21.67;19.47;;;9.10;83.80;;;;;;15354599;28;20206;-76
2020/12/30 22:36:06;;;;;;;22.07;19.63;;;11.20;85.30;;;;;;15373152;28;20198;-76
2020/12/30 22:43:32;;;;;;;20.40;18.30;;;;;;;;;;15371817;28;20229;-76
2020/12/30 22:51:01;;;;;;;19.70;17.60;;;11.60;84.00;;;;;;15370342;28;20226;-75
2020/12/30 22:58:29;;;;;;;17.50;15.73;;;;;;;;;;15370686;28;20244;-75
2020/12/30 23:05:57;;;;;;;17.07;15.27;;;10.40;84.60;;;;;;15369980;28;20202;-76
2020/12/30 23:13:24;;;;;;;18.00;16.20;;;;;;;;;;15370573;28;20232;-75
2020/12/30 23:20:51;;;;;;;18.07;15.87;;;10.00;84.00;;;;;;15352106;28;20237;-75
2020/12/30 23:28:20;;;;;;;16.33;14.63;;;10.80;83.90;;;;;;15368203;28;20253;-76
2020/12/30 23:35:47;;;;;;;16.80;15.10;;;8.90;82.50;;;;;;15366166;28;20269;-75
2020/12/30 23:43:16;;;;;;;17.60;15.80;;;;;;;;;;15368570;28;20229;-75
2020/12/30 23:50:42;;;;;;;18.63;16.73;;;11.30;84.10;;;;;;15350010;28;20667;-74
2020/12/30 23:58:09;;;;;;;20.07;16.93;;;10.80;83.50;;;;;;15349335;28;20324;-75
